createdAt,value
2022-09-06T00:01:46.723Z,18.90
2022-09-06T00:06:44.687Z,18.90
2022-09-06T00:11:43.944Z,18.80
2022-09-06T00:16:41.876Z,18.80
2022-09-06T00:21:40.262Z,18.70
2022-09-06T00:26:38.246Z,18.70
2022-09-06T00:31:37.556Z,18.60
2022-09-06T00:36:35.461Z,18.60
2022-09-06T00:41:33.397Z,18.50
2022-09-06T00:46:33.131Z,18.50
2022-09-06T00:51:35.423Z,18.40
2022-09-06T00:56:35.348Z,18.30
2022-09-06T01:01:33.521Z,18.30
2022-09-06T01:06:38.949Z,18.20
2022-09-06T01:11:49.221Z,18.10
2022-09-06T01:16:55.307Z,18.10
2022-09-06T01:22:03.673Z,18.00
2022-09-06T01:27:35.939Z,17.90
2022-09-06T01:32:42.447Z,17.80
2022-09-06T01:37:40.436Z,17.80
2022-09-06T01:42:40.097Z,17.70
2022-09-06T01:47:50.117Z,17.60
2022-09-06T01:52:57.615Z,17.60
2022-09-06T01:58:13.279Z,17.50
2022-09-06T02:03:20.666Z,17.50
2022-09-06T02:08:24.550Z,17.50
2022-09-06T02:13:25.383Z,17.50
2022-09-06T02:18:29.087Z,17.50
2022-09-06T02:23:30.730Z,17.50
2022-09-06T02:28:28.957Z,17.40
2022-09-06T02:33:32.061Z,17.40
2022-09-06T02:38:30.141Z,17.40
2022-09-06T02:43:28.163Z,17.40
2022-09-06T02:48:26.262Z,17.40
2022-09-06T02:53:25.594Z,17.40
2022-09-06T02:58:24.432Z,17.30
2022-09-06T03:03:23.034Z,17.40
2022-09-06T03:08:22.955Z,17.40
2022-09-06T03:13:22.508Z,17.30
2022-09-06T03:18:20.582Z,17.20
2022-09-06T03:23:18.840Z,17.20
2022-09-06T03:28:17.474Z,17.20
2022-09-06T03:33:16.890Z,17.10
2022-09-06T03:38:14.848Z,17.20
2022-09-06T03:43:12.826Z,17.10
2022-09-06T03:48:10.740Z,17.10
2022-09-06T03:53:09.999Z,17.10
2022-09-06T03:58:08.117Z,17.00
2022-09-06T04:03:06.062Z,17.00
2022-09-06T04:08:05.830Z,16.90
2022-09-06T04:13:05.098Z,16.80
2022-09-06T04:18:06.057Z,16.80
2022-09-06T04:23:07.294Z,16.80
2022-09-06T04:28:06.591Z,16.70
2022-09-06T04:33:04.525Z,16.70
2022-09-06T04:38:02.969Z,16.70
2022-09-06T04:43:01.021Z,16.70
2022-09-06T04:48:00.325Z,16.60
2022-09-06T04:52:58.234Z,16.60
2022-09-06T04:57:58.421Z,16.60
2022-09-06T05:02:56.515Z,16.70
2022-09-06T05:07:56.492Z,16.70
2022-09-06T05:12:55.546Z,16.80
2022-09-06T05:17:53.591Z,16.80
2022-09-06T05:22:55.890Z,16.90
2022-09-06T05:27:53.848Z,16.80
2022-09-06T05:32:52.150Z,16.90
2022-09-06T05:37:50.104Z,16.90
2022-09-06T05:42:49.368Z,16.90
2022-09-06T05:47:47.342Z,17.00
2022-09-06T05:52:45.279Z,17.10
2022-09-06T05:57:43.186Z,17.10
2022-09-06T06:02:42.519Z,17.10
2022-09-06T06:07:40.574Z,17.20
2022-09-06T06:12:38.614Z,17.30
2022-09-06T06:17:36.527Z,17.40
2022-09-06T06:22:35.842Z,17.50
2022-09-06T06:27:34.853Z,17.60
2022-09-06T06:32:32.804Z,17.80
2022-09-06T06:37:30.709Z,18.00
2022-09-06T06:42:30.001Z,18.10
2022-09-06T06:47:28.589Z,18.00
2022-09-06T06:52:26.891Z,18.00
2022-09-06T06:57:24.903Z,18.10
2022-09-06T07:02:24.429Z,18.50
2022-09-06T07:12:27.523Z,19.00
2022-09-06T07:17:27.059Z,19.30
2022-09-06T07:22:25.212Z,19.40
2022-09-06T07:32:43.214Z,19.60
2022-09-06T07:37:41.126Z,19.60
2022-09-06T07:42:39.129Z,19.60
2022-09-06T07:53:15.356Z,20.00
2022-09-06T07:58:15.285Z,20.00
2022-09-06T08:03:13.763Z,20.20
2022-09-06T08:13:31.132Z,20.40
2022-09-06T08:18:29.260Z,20.60
2022-09-06T08:23:29.177Z,20.80
2022-09-06T08:28:28.950Z,20.70
2022-09-06T08:33:28.471Z,20.80
2022-09-06T08:38:28.698Z,21.00
2022-09-06T08:43:29.182Z,21.30
2022-09-06T08:48:30.827Z,21.60
2022-09-06T08:53:30.308Z,22.00
2022-09-06T08:58:39.024Z,23.00
2022-09-06T09:03:38.267Z,23.70
2022-09-06T09:08:44.233Z,23.90
2022-09-06T09:13:55.488Z,23.90
2022-09-06T09:18:56.054Z,24.20
2022-09-06T09:23:58.812Z,24.20
2022-09-06T09:29:10.708Z,24.40
2022-09-06T09:34:13.517Z,24.90
2022-09-06T09:39:13.597Z,25.20
2022-09-06T09:44:17.447Z,25.00
2022-09-06T09:49:28.967Z,24.60
2022-09-06T09:54:33.802Z,24.00
2022-09-06T09:59:37.896Z,23.30
2022-09-06T10:09:47.395Z,23.20
2022-09-06T10:14:46.497Z,23.00
2022-09-06T10:19:46.275Z,23.00
2022-09-06T10:24:57.025Z,22.90
2022-09-06T10:30:02.334Z,22.70
2022-09-06T10:35:10.981Z,22.60
2022-09-06T10:40:12.285Z,22.50
2022-09-06T10:45:22.126Z,22.50
2022-09-06T10:50:20.478Z,22.60
2022-09-06T10:55:21.082Z,22.90
2022-09-06T11:00:19.674Z,23.40
2022-09-06T11:10:40.288Z,24.30
2022-09-06T11:15:45.154Z,25.30
2022-09-06T11:20:53.240Z,25.60
2022-09-06T11:26:30.427Z,25.50
2022-09-06T11:36:51.798Z,24.80
2022-09-06T11:41:51.098Z,24.40
2022-09-06T11:47:02.652Z,24.00
2022-09-06T11:52:01.351Z,23.80
2022-09-06T11:57:09.462Z,23.70
2022-09-06T12:02:28.195Z,23.70
2022-09-06T12:07:26.901Z,23.70
2022-09-06T12:17:48.911Z,23.50
2022-09-06T12:22:54.728Z,23.40
2022-09-06T12:27:55.309Z,23.60
2022-09-06T12:32:55.335Z,23.70
2022-09-06T12:37:57.811Z,24.00
2022-09-06T12:42:56.478Z,24.40
2022-09-06T12:48:08.493Z,24.90
2022-09-06T12:53:24.944Z,25.10
2022-09-06T12:58:29.751Z,25.30
2022-09-06T13:03:32.898Z,25.70
2022-09-06T13:08:36.931Z,25.60
2022-09-06T13:13:34.999Z,25.50
2022-09-06T13:18:36.391Z,25.30
2022-09-06T13:23:43.343Z,25.10
2022-09-06T13:28:41.764Z,25.10
2022-09-06T13:33:42.201Z,25.10
2022-09-06T13:38:42.311Z,24.90
2022-09-06T13:43:44.926Z,25.10
2022-09-06T13:48:45.043Z,25.30
2022-09-06T13:53:43.217Z,25.30
2022-09-06T13:58:41.146Z,24.90
2022-09-06T14:03:42.685Z,24.80
2022-09-06T14:09:05.830Z,24.80
2022-09-06T14:14:01.188Z,25.00
2022-09-06T14:18:59.330Z,25.50
2022-09-06T14:24:03.900Z,25.70
2022-09-06T14:29:02.789Z,25.30
2022-09-06T14:34:02.157Z,24.90
2022-09-06T14:39:02.852Z,25.00
2022-09-06T14:44:01.320Z,25.30
2022-09-06T14:49:01.250Z,25.50
2022-09-06T14:54:03.317Z,25.40
2022-09-06T14:59:01.657Z,25.40
2022-09-06T15:04:01.736Z,25.10
2022-09-06T15:09:00.329Z,25.10
2022-09-06T15:14:00.133Z,24.80
2022-09-06T15:18:58.617Z,24.80
2022-09-06T15:23:57.153Z,24.70
2022-09-06T15:28:55.339Z,24.80
2022-09-06T15:33:55.351Z,24.80
2022-09-06T15:38:54.309Z,24.80
2022-09-06T15:43:56.886Z,24.70
2022-09-06T15:48:56.387Z,24.80
2022-09-06T15:53:54.613Z,24.70
2022-09-06T15:58:52.723Z,24.60
2022-09-06T16:03:52.848Z,24.40
2022-09-06T16:08:56.372Z,24.30
2022-09-06T16:13:54.923Z,24.20
2022-09-06T16:18:53.456Z,24.00
2022-09-06T16:23:54.575Z,24.00
2022-09-06T16:28:53.941Z,23.90
2022-09-06T16:33:53.796Z,23.80
2022-09-06T16:38:53.706Z,23.60
2022-09-06T16:43:52.403Z,23.50
2022-09-06T16:48:52.598Z,23.40
2022-09-06T16:53:51.106Z,23.40
2022-09-06T16:58:54.764Z,23.30
2022-09-06T17:03:53.174Z,23.30
2022-09-06T17:08:52.076Z,23.30
2022-09-06T17:13:54.503Z,23.20
2022-09-06T17:18:53.749Z,23.10
2022-09-06T17:23:52.534Z,23.10
2022-09-06T17:28:52.530Z,23.00
2022-09-06T17:33:50.927Z,22.90
2022-09-06T17:38:53.379Z,22.90
2022-09-06T17:43:54.038Z,22.90
2022-09-06T17:48:52.338Z,22.80
2022-09-06T17:53:50.523Z,22.70
2022-09-06T17:58:55.318Z,22.70
2022-09-06T18:03:53.836Z,22.70
2022-09-06T18:08:53.093Z,22.60
2022-09-06T18:13:58.529Z,22.60
2022-09-06T18:18:58.308Z,22.60
2022-09-06T18:23:57.105Z,22.50
2022-09-06T18:28:56.547Z,22.50
2022-09-06T18:33:57.996Z,22.50
2022-09-06T18:38:56.097Z,22.40
2022-09-06T18:43:54.117Z,22.40
2022-09-06T18:48:53.733Z,22.40
2022-09-06T18:53:52.784Z,22.30
2022-09-06T18:58:51.876Z,22.20
2022-09-06T19:03:49.987Z,22.20
2022-09-06T19:08:50.113Z,22.10
2022-09-06T19:13:52.183Z,22.00
2022-09-06T19:18:50.963Z,22.00
2022-09-06T19:23:57.278Z,21.90
2022-09-06T19:28:57.227Z,21.90
2022-09-06T19:33:56.649Z,21.90
2022-09-06T19:39:04.999Z,21.90
2022-09-06T19:44:05.727Z,21.90
2022-09-06T19:49:04.510Z,21.80
2022-09-06T19:54:04.215Z,21.90
2022-09-06T19:59:05.093Z,21.80
2022-09-06T20:04:05.237Z,21.70
2022-09-06T20:09:06.456Z,21.70
2022-09-06T20:14:04.690Z,21.60
2022-09-06T20:19:03.231Z,21.60
2022-09-06T20:24:01.345Z,21.60
2022-09-06T20:29:02.386Z,21.50
2022-09-06T20:34:02.924Z,21.50
2022-09-06T20:39:02.015Z,21.50
2022-09-06T20:44:01.374Z,21.40
2022-09-06T20:49:04.106Z,21.40
2022-09-06T20:54:03.526Z,21.30
2022-09-06T20:59:05.403Z,21.30
2022-09-06T21:04:05.798Z,21.30
2022-09-06T21:09:04.965Z,21.30
2022-09-06T21:14:05.566Z,21.20
2022-09-06T21:19:05.395Z,21.20
2022-09-06T21:24:04.995Z,21.10
2022-09-06T21:29:04.667Z,21.10
2022-09-06T21:34:04.975Z,21.10
2022-09-06T21:39:05.251Z,21.00
2022-09-06T21:44:06.305Z,20.90
2022-09-06T21:49:08.197Z,20.90
2022-09-06T21:54:06.982Z,20.90
2022-09-06T21:59:07.031Z,20.80
2022-09-06T22:04:06.004Z,20.70
2022-09-06T22:09:07.649Z,20.70
2022-09-06T22:14:09.328Z,20.60
2022-09-06T22:19:09.105Z,20.60
2022-09-06T22:24:09.072Z,20.50
2022-09-06T22:29:10.727Z,20.50
2022-09-06T22:34:08.874Z,20.50
2022-09-06T22:39:07.205Z,20.50
2022-09-06T22:44:05.921Z,20.50
2022-09-06T22:49:05.419Z,20.50
2022-09-06T22:54:04.519Z,20.50
2022-09-06T22:59:02.767Z,20.40
2022-09-06T23:04:01.097Z,20.30
2022-09-06T23:09:00.476Z,20.30
2022-09-06T23:13:59.253Z,20.20
2022-09-06T23:18:57.525Z,20.20
2022-09-06T23:23:57.125Z,20.20
2022-09-06T23:28:57.279Z,20.20
2022-09-06T23:33:56.908Z,20.20
2022-09-06T23:38:55.835Z,20.20
2022-09-06T23:43:53.938Z,20.10
2022-09-06T23:48:53.412Z,20.10
2022-09-06T23:53:51.499Z,20.10
2022-09-06T23:58:49.521Z,20.00
